createdAt,value
2019-03-21T00:01:48.053Z,102832.83
2019-03-21T00:04:13.856Z,102831.17
2019-03-21T00:06:39.632Z,102832.31
2019-03-21T00:09:07.526Z,102836.72
2019-03-21T00:12:00.450Z,102833.39
2019-03-21T00:14:51.497Z,102833.59
2019-03-21T00:17:32.736Z,102843.13
2019-03-21T00:19:58.570Z,102843.13
2019-03-21T00:22:24.328Z,102827.84
2019-03-21T00:24:50.132Z,102838.72
2019-03-21T00:27:15.926Z,102843.13
2019-03-21T00:29:41.731Z,102840.61
2019-03-21T00:32:07.508Z,102842.83
2019-03-21T00:34:33.297Z,102843.66
2019-03-21T00:36:59.090Z,102842.67
2019-03-21T00:39:32.600Z,102846.52
2019-03-21T00:41:52.598Z,102844.18
2019-03-21T00:44:18.657Z,102840.55
2019-03-21T00:46:44.589Z,102846.66
2019-03-21T00:49:10.384Z,102838.72
2019-03-21T00:51:36.184Z,102842.98
2019-03-21T00:54:01.966Z,102841.55
2019-03-21T00:56:27.765Z,102839.27
2019-03-21T00:58:53.553Z,102840.97
2019-03-21T01:01:19.350Z,102835.22
2019-03-21T01:03:45.224Z,102832.41
2019-03-21T01:06:11.011Z,102828.56
2019-03-21T01:08:36.787Z,102828.48
2019-03-21T01:11:02.587Z,102826.29
2019-03-21T01:13:31.379Z,102826.02
2019-03-21T01:15:57.195Z,102821.41
2019-03-21T01:18:22.989Z,102826.50
2019-03-21T01:20:48.772Z,102816.22
2019-03-21T01:23:14.549Z,102814.79
2019-03-21T01:25:53.085Z,102810.27
2019-03-21T01:28:18.874Z,102812.25
2019-03-21T01:30:44.655Z,102801.38
2019-03-21T01:33:10.431Z,102805.86
2019-03-21T01:35:37.522Z,102811.89
2019-03-21T01:38:03.335Z,102813.50
2019-03-21T01:40:47.872Z,102813.50
2019-03-21T01:43:13.671Z,102805.06
2019-03-21T01:45:39.550Z,102805.06
2019-03-21T01:48:05.343Z,102797.84
2019-03-21T01:50:38.584Z,102796.25
2019-03-21T01:53:04.383Z,102794.85
2019-03-21T01:55:30.155Z,102794.85
2019-03-21T01:57:55.942Z,102796.83
2019-03-21T02:00:27.864Z,102796.83
2019-03-21T02:02:55.767Z,102784.61
2019-03-21T02:05:21.568Z,102781.20
2019-03-21T02:07:47.356Z,102781.20
2019-03-21T02:10:15.041Z,102778.66
2019-03-21T02:12:40.838Z,102789.70
2019-03-21T02:15:10.120Z,102774.11
2019-03-21T02:17:35.928Z,102780.78
2019-03-21T02:20:03.524Z,102775.30
2019-03-21T02:22:29.325Z,102784.89
2019-03-21T02:24:55.100Z,102769.83
2019-03-21T02:27:20.899Z,102778.20
2019-03-21T02:29:46.683Z,102780.84
2019-03-21T02:32:12.474Z,102781.50
2019-03-21T02:34:38.263Z,102773.95
2019-03-21T02:37:04.058Z,102772.70
2019-03-21T02:39:29.840Z,102767.58
2019-03-21T02:41:55.633Z,102766.77
2019-03-21T02:44:21.423Z,102763.09
2019-03-21T02:46:47.240Z,102759.41
2019-03-21T02:49:13.018Z,102751.95
2019-03-21T02:51:38.808Z,102762.05
2019-03-21T02:54:04.589Z,102759.34
2019-03-21T02:56:30.373Z,102766.30
2019-03-21T02:58:56.261Z,102760.39
2019-03-21T03:01:22.052Z,102754.73
2019-03-21T03:03:47.849Z,102755.00
2019-03-21T03:06:13.627Z,102756.35
2019-03-21T03:08:39.426Z,102757.07
2019-03-21T03:11:14.087Z,102758.41
2019-03-21T03:13:42.687Z,102758.30
2019-03-21T03:16:08.500Z,102755.24
2019-03-21T03:18:34.275Z,102755.52
2019-03-21T03:21:00.054Z,102746.65
2019-03-21T03:23:25.848Z,102745.93
2019-03-21T03:25:51.842Z,102744.58
2019-03-21T03:28:23.934Z,102746.50
2019-03-21T03:30:51.950Z,102738.65
2019-03-21T03:33:17.738Z,102738.65
2019-03-21T03:35:43.513Z,102736.79
2019-03-21T03:38:09.313Z,102744.76
2019-03-21T03:40:43.220Z,102744.76
2019-03-21T03:43:09.047Z,102744.31
2019-03-21T03:45:38.442Z,102746.67
2019-03-21T03:48:04.712Z,102736.09
2019-03-21T03:50:30.517Z,102734.19
2019-03-21T03:52:57.396Z,102734.19
2019-03-21T03:55:23.193Z,102735.37
2019-03-21T03:57:52.573Z,102745.80
2019-03-21T04:00:19.989Z,102748.14
2019-03-21T04:02:47.292Z,102744.94
2019-03-21T04:05:13.199Z,102744.94
2019-03-21T04:07:40.479Z,102743.32
2019-03-21T04:10:15.902Z,102749.79
2019-03-21T04:12:41.792Z,102749.79
2019-03-21T04:15:12.203Z,102753.95
2019-03-21T04:17:37.999Z,102757.16
2019-03-21T04:20:10.239Z,102758.63
2019-03-21T04:22:36.024Z,102756.71
2019-03-21T04:25:02.118Z,102757.64
2019-03-21T04:27:27.907Z,102751.38
2019-03-21T04:29:53.707Z,102751.38
2019-03-21T04:32:19.487Z,102762.10
2019-03-21T04:34:45.280Z,102758.54
2019-03-21T04:37:11.069Z,102762.05
2019-03-21T04:39:36.856Z,102763.87
2019-03-21T04:42:02.727Z,102759.47
2019-03-21T04:44:28.525Z,102755.84
2019-03-21T04:46:54.330Z,102760.78
2019-03-21T04:49:20.098Z,102754.47
2019-03-21T04:51:45.884Z,102752.88
2019-03-21T04:54:11.659Z,102759.10
2019-03-21T04:56:37.455Z,102755.57
2019-03-21T04:59:03.237Z,102762.93
2019-03-21T05:01:29.025Z,102761.23
2019-03-21T05:03:54.819Z,102762.16
2019-03-21T05:06:20.607Z,102762.63
2019-03-21T05:08:46.397Z,102762.52
2019-03-21T05:11:12.582Z,102757.39
2019-03-21T05:13:38.367Z,102761.06
2019-03-21T05:16:14.248Z,102759.22
2019-03-21T05:18:56.500Z,102760.61
2019-03-21T05:21:23.101Z,102701.55
2019-03-21T05:23:48.902Z,102748.23
2019-03-21T05:26:14.694Z,102748.23
2019-03-21T05:28:40.479Z,102760.35
2019-03-21T05:31:25.186Z,102761.70
2019-03-21T05:33:50.968Z,102764.54
2019-03-21T05:36:16.764Z,102768.48
2019-03-21T05:38:42.543Z,102778.17
2019-03-21T05:41:08.338Z,102775.89
2019-03-21T05:43:46.432Z,102774.80
2019-03-21T05:46:12.257Z,102776.16
2019-03-21T05:48:38.035Z,102781.12
2019-03-21T05:51:03.824Z,102781.84
2019-03-21T05:53:29.615Z,102784.33
2019-03-21T05:55:55.386Z,102782.72
2019-03-21T05:58:21.183Z,102781.20
2019-03-21T06:01:03.050Z,102781.52
2019-03-21T06:03:32.445Z,102789.34
2019-03-21T06:06:05.096Z,102787.38
2019-03-21T06:08:34.091Z,102792.91
2019-03-21T06:10:59.972Z,102789.97
2019-03-21T06:13:25.760Z,102791.50
2019-03-21T06:15:51.543Z,102793.69
2019-03-21T06:18:47.290Z,102791.50
2019-03-21T06:21:16.893Z,102791.91
2019-03-21T06:23:52.568Z,102791.91
2019-03-21T06:26:36.767Z,102785.61
2019-03-21T06:29:02.564Z,102779.43
2019-03-21T06:31:28.335Z,102782.89
2019-03-21T06:33:54.187Z,102797.77
2019-03-21T06:36:19.934Z,102794.45
2019-03-21T06:38:45.727Z,102791.54
2019-03-21T06:41:11.500Z,102789.84
2019-03-21T06:43:37.292Z,102792.30
2019-03-21T06:46:03.062Z,102790.41
2019-03-21T06:48:28.856Z,102791.33
2019-03-21T06:50:54.665Z,102797.07
2019-03-21T06:53:20.454Z,102800.09
2019-03-21T06:55:46.250Z,102797.14
2019-03-21T06:58:12.046Z,102803.03
2019-03-21T07:00:37.829Z,102803.11
2019-03-21T07:03:04.443Z,102810.09
2019-03-21T07:05:30.219Z,102808.27
2019-03-21T07:07:56.013Z,102808.63
2019-03-21T07:10:21.783Z,102809.84
2019-03-21T07:12:47.581Z,102815.20
2019-03-21T07:15:13.355Z,102806.41
2019-03-21T07:17:39.152Z,102818.12
2019-03-21T07:20:07.940Z,102817.61
2019-03-21T07:22:33.731Z,102812.99
2019-03-21T07:24:59.526Z,102812.99
2019-03-21T07:27:25.313Z,102814.64
2019-03-21T07:29:51.105Z,102827.37
2019-03-21T07:32:16.877Z,102829.66
2019-03-21T07:34:42.686Z,102839.11
2019-03-21T07:37:08.458Z,102831.52
2019-03-21T07:39:34.257Z,102836.53
2019-03-21T07:42:01.384Z,102836.42
2019-03-21T07:44:27.343Z,102832.09
2019-03-21T07:46:53.116Z,102840.94
2019-03-21T07:49:18.939Z,102843.63
2019-03-21T07:51:45.283Z,102854.03
2019-03-21T07:54:11.227Z,102865.70
2019-03-21T07:56:37.003Z,102865.70
2019-03-21T07:59:02.894Z,102867.16
2019-03-21T08:01:28.680Z,102857.41
2019-03-21T08:03:54.481Z,102863.38
2019-03-21T08:06:20.262Z,102865.88
2019-03-21T08:08:46.053Z,102861.73
2019-03-21T08:11:11.845Z,102867.48
2019-03-21T08:13:37.635Z,102870.61
2019-03-21T08:16:03.424Z,102881.48
2019-03-21T08:18:29.236Z,102885.44
2019-03-21T08:20:58.399Z,102887.55
2019-03-21T08:23:22.693Z,102890.94
2019-03-21T08:25:48.484Z,102895.42
2019-03-21T08:28:14.268Z,102884.06
2019-03-21T08:31:01.790Z,102884.06
2019-03-21T08:33:27.612Z,102900.77
2019-03-21T08:35:53.387Z,102900.52
2019-03-21T08:38:19.185Z,102906.01
2019-03-21T08:40:44.989Z,102897.39
2019-03-21T08:43:10.768Z,102897.39
2019-03-21T08:45:36.563Z,102907.43
2019-03-21T08:48:02.346Z,102911.36
2019-03-21T08:50:28.131Z,102921.37
2019-03-21T08:52:53.917Z,102922.71
2019-03-21T08:55:19.714Z,102929.44
2019-03-21T08:57:45.492Z,102917.52
2019-03-21T09:00:12.888Z,102914.09
2019-03-21T09:02:38.673Z,102910.38
2019-03-21T09:05:04.965Z,102902.91
2019-03-21T09:07:30.744Z,102899.95
2019-03-21T09:09:56.535Z,102891.88
2019-03-21T09:12:22.328Z,102893.30
2019-03-21T09:14:48.107Z,102894.41
2019-03-21T09:17:13.884Z,102885.13
2019-03-21T09:19:39.692Z,102887.97
2019-03-21T09:22:05.473Z,102884.09
2019-03-21T09:24:31.382Z,102888.89
2019-03-21T09:26:57.160Z,102881.80
2019-03-21T09:29:22.955Z,102883.87
2019-03-21T09:31:48.757Z,102910.98
2019-03-21T09:34:14.535Z,102886.25
2019-03-21T09:36:40.429Z,102881.44
2019-03-21T09:39:06.317Z,102882.63
2019-03-21T09:41:32.113Z,102879.05
2019-03-21T09:43:57.899Z,102882.46
2019-03-21T09:46:23.687Z,102880.03
2019-03-21T09:48:49.470Z,102882.83
2019-03-21T09:51:15.270Z,102869.58
2019-03-21T09:53:41.044Z,102869.52
2019-03-21T09:56:06.860Z,102872.64
2019-03-21T09:58:32.636Z,102870.75
2019-03-21T10:00:58.430Z,102874.79
2019-03-21T10:03:24.213Z,102866.34
2019-03-21T10:05:50.007Z,102865.20
2019-03-21T10:08:15.790Z,102871.46
2019-03-21T10:10:41.582Z,102861.65
2019-03-21T10:13:07.356Z,102868.13
2019-03-21T10:15:33.260Z,102871.17
2019-03-21T10:17:59.051Z,102870.39
2019-03-21T10:20:24.844Z,102875.67
2019-03-21T10:22:50.639Z,102875.23
2019-03-21T10:25:16.418Z,102883.03
2019-03-21T10:27:42.213Z,102883.27
2019-03-21T10:30:08.804Z,102877.09
2019-03-21T10:32:34.603Z,102875.73
2019-03-21T10:35:00.390Z,102877.93
2019-03-21T10:37:26.178Z,102880.19
2019-03-21T10:39:52.074Z,102872.73
2019-03-21T10:42:17.864Z,102877.56
2019-03-21T10:44:43.644Z,102871.21
2019-03-21T10:47:09.499Z,102868.23
2019-03-21T10:49:35.227Z,102864.45
2019-03-21T10:52:01.023Z,102876.16
2019-03-21T10:54:26.809Z,102869.20
2019-03-21T10:56:52.605Z,102861.48
2019-03-21T10:59:18.381Z,102860.06
2019-03-21T11:01:44.199Z,102865.47
2019-03-21T11:04:09.975Z,102862.84
2019-03-21T11:06:35.766Z,102869.59
2019-03-21T11:09:01.562Z,102861.75
2019-03-21T11:11:27.444Z,102858.76
2019-03-21T11:13:53.239Z,102858.24
2019-03-21T11:16:19.016Z,102857.34
2019-03-21T11:18:44.817Z,102860.20
2019-03-21T11:21:10.698Z,102855.39
2019-03-21T11:23:36.500Z,102847.98
2019-03-21T11:26:02.276Z,102847.69
2019-03-21T11:28:28.060Z,102851.04
2019-03-21T11:30:53.847Z,102856.92
2019-03-21T11:33:19.642Z,102855.45
2019-03-21T11:35:45.425Z,102860.56
2019-03-21T11:38:11.225Z,102857.37
2019-03-21T11:40:37.015Z,102855.60
2019-03-21T11:43:04.507Z,102855.60
2019-03-21T11:45:30.311Z,102847.36
2019-03-21T11:47:56.078Z,102840.70
2019-03-21T11:50:21.847Z,102850.09
2019-03-21T11:52:47.642Z,102848.52
2019-03-21T11:55:13.543Z,102853.66
2019-03-21T11:57:39.341Z,102848.43
2019-03-21T12:00:05.874Z,102846.33
2019-03-21T12:02:31.722Z,102836.61
2019-03-21T12:04:57.500Z,102835.09
2019-03-21T12:07:23.280Z,102843.75
2019-03-21T12:09:49.071Z,102843.39
2019-03-21T12:12:14.956Z,102839.98
2019-03-21T12:14:40.756Z,102835.52
2019-03-21T12:17:06.544Z,102837.00
2019-03-21T12:19:32.346Z,102840.80
2019-03-21T12:21:58.132Z,102842.44
2019-03-21T12:24:23.931Z,102842.34
2019-03-21T12:26:49.722Z,102845.70
2019-03-21T12:29:15.510Z,102846.38
2019-03-21T12:31:41.337Z,102842.46
2019-03-21T12:34:07.230Z,102850.23
2019-03-21T12:36:33.010Z,102843.93
2019-03-21T12:38:58.869Z,102847.88
2019-03-21T12:41:24.654Z,102843.09
2019-03-21T12:43:50.454Z,102843.58
2019-03-21T12:46:16.231Z,102845.28
2019-03-21T12:48:42.022Z,102850.09
2019-03-21T12:51:07.806Z,102847.80
2019-03-21T12:53:33.608Z,102852.40
2019-03-21T12:55:59.389Z,102855.41
2019-03-21T12:58:37.171Z,102852.05
2019-03-21T13:01:02.962Z,102854.41
2019-03-21T13:03:28.768Z,102854.41
2019-03-21T13:05:54.553Z,102851.39
2019-03-21T13:08:20.363Z,102856.81
2019-03-21T13:10:46.146Z,102850.52
2019-03-21T13:13:12.038Z,102857.81
2019-03-21T13:15:37.923Z,102854.80
2019-03-21T13:18:04.223Z,102853.58
2019-03-21T13:20:30.018Z,102856.97
2019-03-21T13:22:55.800Z,102858.34
2019-03-21T13:25:21.607Z,102852.33
2019-03-21T13:27:47.391Z,102846.59
2019-03-21T13:30:13.191Z,102844.23
2019-03-21T13:32:38.958Z,102849.11
2019-03-21T13:35:06.306Z,102846.52
2019-03-21T13:37:32.449Z,102836.68
2019-03-21T13:39:58.237Z,102836.68
2019-03-21T13:42:24.015Z,102846.80
2019-03-21T13:44:49.801Z,102846.45
2019-03-21T13:47:15.592Z,102847.91
2019-03-21T13:49:41.382Z,102842.86
2019-03-21T13:52:07.177Z,102841.98
2019-03-21T13:54:32.951Z,102838.58
2019-03-21T13:56:58.738Z,102828.69
2019-03-21T13:59:24.529Z,102836.86
2019-03-21T14:01:50.339Z,102831.91
2019-03-21T14:04:16.114Z,102832.58
2019-03-21T14:06:41.902Z,102836.05
2019-03-21T14:09:07.684Z,102840.91
2019-03-21T14:11:33.484Z,102839.94
2019-03-21T14:13:59.273Z,102839.86
2019-03-21T14:16:25.072Z,102836.64
2019-03-21T14:18:50.867Z,102837.45
2019-03-21T14:21:16.649Z,102839.03
2019-03-21T14:23:43.711Z,102838.73
2019-03-21T14:26:09.652Z,102840.56
2019-03-21T14:28:35.428Z,102840.56
2019-03-21T14:31:01.224Z,102835.74
2019-03-21T14:33:27.001Z,102829.40
2019-03-21T14:35:52.808Z,102825.58
2019-03-21T14:38:26.079Z,102817.64
2019-03-21T14:40:46.315Z,102819.58
2019-03-21T14:43:12.091Z,102819.58
2019-03-21T14:45:37.879Z,102819.45
2019-03-21T14:48:03.654Z,102821.81
2019-03-21T14:50:29.436Z,102824.88
2019-03-21T14:52:55.228Z,102817.05
2019-03-21T14:55:21.006Z,102822.03
2019-03-21T14:57:46.802Z,102820.11
2019-03-21T15:00:16.737Z,102825.81
2019-03-21T15:02:42.530Z,102829.93
2019-03-21T15:05:08.308Z,102827.11
2019-03-21T15:07:34.500Z,102834.41
2019-03-21T15:10:00.385Z,102829.44
2019-03-21T15:12:26.175Z,102835.64
2019-03-21T15:14:51.953Z,102834.16
2019-03-21T15:17:17.735Z,102830.31
2019-03-21T15:19:43.523Z,102838.10
2019-03-21T15:22:09.316Z,102835.34
2019-03-21T15:24:35.091Z,102830.23
2019-03-21T15:27:00.877Z,102830.45
2019-03-21T15:29:26.670Z,102833.22
2019-03-21T15:31:52.464Z,102844.11
2019-03-21T15:34:18.240Z,102834.22
2019-03-21T15:36:44.032Z,102832.88
2019-03-21T15:39:09.846Z,102834.30
2019-03-21T15:41:36.532Z,102819.05
2019-03-21T15:44:02.323Z,102827.11
2019-03-21T15:46:28.123Z,102830.87
2019-03-21T15:48:53.909Z,102827.86
2019-03-21T15:51:19.687Z,102826.27
2019-03-21T15:53:54.883Z,102829.11
2019-03-21T15:56:13.166Z,102824.10
2019-03-21T15:58:38.959Z,102824.10
2019-03-21T16:01:04.734Z,102822.75
2019-03-21T16:03:30.611Z,102830.35
2019-03-21T16:05:56.388Z,102829.16
2019-03-21T16:08:22.178Z,102823.57
2019-03-21T16:10:48.354Z,102820.98
2019-03-21T16:13:14.146Z,102827.09
2019-03-21T16:15:39.923Z,102837.98
2019-03-21T16:18:05.727Z,102838.16
2019-03-21T16:20:31.643Z,102836.32
2019-03-21T16:22:57.440Z,102832.27
2019-03-21T16:25:23.228Z,102830.75
2019-03-21T16:27:49.027Z,102833.97
2019-03-21T16:30:14.910Z,102839.75
2019-03-21T16:32:40.694Z,102836.98
2019-03-21T16:35:09.581Z,102833.39
2019-03-21T16:37:35.465Z,102833.06
2019-03-21T16:40:09.064Z,102833.53
2019-03-21T16:42:37.086Z,102838.59
2019-03-21T16:45:07.567Z,102837.43
2019-03-21T16:47:33.352Z,102838.78
2019-03-21T16:49:59.147Z,102837.50
2019-03-21T16:52:24.973Z,102841.03
2019-03-21T16:54:50.754Z,102837.59
2019-03-21T16:57:16.540Z,102825.11
2019-03-21T16:59:42.336Z,102837.23
2019-03-21T17:02:08.175Z,102831.19
2019-03-21T17:04:33.963Z,102834.18
2019-03-21T17:06:59.750Z,102841.22
2019-03-21T17:09:25.551Z,102834.18
2019-03-21T17:11:51.312Z,102839.03
2019-03-21T17:14:17.102Z,102836.07
2019-03-21T17:16:42.884Z,102832.56
2019-03-21T17:19:08.708Z,102833.56
2019-03-21T17:21:34.484Z,102832.02
2019-03-21T17:24:00.242Z,102835.83
2019-03-21T17:26:26.019Z,102833.55
2019-03-21T17:28:51.820Z,102831.84
2019-03-21T17:31:17.603Z,102829.85
2019-03-21T17:33:43.445Z,102834.03
2019-03-21T17:36:09.321Z,102835.54
2019-03-21T17:38:35.183Z,102833.02
2019-03-21T17:41:00.926Z,102830.16
2019-03-21T17:43:26.699Z,102830.61
2019-03-21T17:45:52.783Z,102821.95
2019-03-21T17:48:18.647Z,102823.93
2019-03-21T17:50:44.435Z,102819.53
2019-03-21T17:53:10.211Z,102825.56
2019-03-21T17:55:36.008Z,102824.14
2019-03-21T17:58:01.791Z,102823.37
2019-03-21T18:00:32.460Z,102826.28
2019-03-21T18:02:58.396Z,102839.42
2019-03-21T18:05:24.164Z,102839.42
2019-03-21T18:07:49.940Z,102847.27
2019-03-21T18:10:24.959Z,102850.30
2019-03-21T18:12:50.749Z,102847.75
2019-03-21T18:15:16.568Z,102847.75
2019-03-21T18:17:42.344Z,102843.34
2019-03-21T18:20:08.743Z,102842.08
2019-03-21T18:22:34.533Z,102833.03
2019-03-21T18:25:00.328Z,102833.03
2019-03-21T18:27:26.123Z,102842.63
2019-03-21T18:29:51.904Z,102836.60
2019-03-21T18:32:17.696Z,102839.58
2019-03-21T18:34:43.473Z,102847.24
2019-03-21T18:37:09.269Z,102845.77
2019-03-21T18:39:35.056Z,102851.02
2019-03-21T18:42:00.843Z,102859.42
2019-03-21T18:44:26.625Z,102862.88
2019-03-21T18:46:52.427Z,102858.75
2019-03-21T18:49:18.199Z,102875.02
2019-03-21T18:51:43.995Z,102869.50
2019-03-21T18:54:09.779Z,102860.41
2019-03-21T18:56:35.571Z,102860.33
2019-03-21T18:59:01.420Z,102857.70
2019-03-21T19:01:27.247Z,102854.66
2019-03-21T19:03:53.019Z,102861.80
2019-03-21T19:06:18.804Z,102863.16
2019-03-21T19:08:44.757Z,102867.56
2019-03-21T19:11:10.566Z,102873.19
2019-03-21T19:13:36.340Z,102880.28
2019-03-21T19:16:02.134Z,102882.00
2019-03-21T19:18:27.953Z,102884.80
2019-03-21T19:20:53.827Z,102886.52
2019-03-21T19:23:19.643Z,102893.41
2019-03-21T19:25:45.456Z,102889.79
2019-03-21T19:28:11.289Z,102901.92
2019-03-21T19:30:37.291Z,102911.91
2019-03-21T19:33:03.159Z,102906.10
2019-03-21T19:35:29.986Z,102908.35
2019-03-21T19:37:55.787Z,102915.81
2019-03-21T19:40:21.568Z,102906.77
2019-03-21T19:42:47.380Z,102912.61
2019-03-21T19:45:15.556Z,102920.91
2019-03-21T19:47:41.353Z,102920.34
2019-03-21T19:50:13.047Z,102923.52
2019-03-21T19:52:38.851Z,102922.64
2019-03-21T19:55:05.132Z,102922.64
2019-03-21T19:57:30.935Z,102915.59
2019-03-21T19:59:56.722Z,102915.59
2019-03-21T20:02:22.503Z,102930.61
2019-03-21T20:04:48.527Z,102923.57
2019-03-21T20:07:14.347Z,102924.41
2019-03-21T20:09:40.122Z,102930.25
2019-03-21T20:12:05.912Z,102931.96
2019-03-21T20:14:31.711Z,102939.48
2019-03-21T20:16:57.489Z,102936.07
2019-03-21T20:19:23.301Z,102933.38
2019-03-21T20:21:49.080Z,102940.74
2019-03-21T20:24:14.876Z,102933.78
2019-03-21T20:26:40.657Z,102933.38
2019-03-21T20:29:06.453Z,102942.18
2019-03-21T20:31:32.243Z,102939.27
2019-03-21T20:33:58.037Z,102939.27
2019-03-21T20:36:23.821Z,102943.17
2019-03-21T20:38:49.606Z,102943.44
2019-03-21T20:41:15.384Z,102943.80
2019-03-21T20:43:41.181Z,102942.39
2019-03-21T20:46:06.957Z,102940.22
2019-03-21T20:48:32.552Z,102937.98
2019-03-21T20:50:58.337Z,102939.70
2019-03-21T20:53:24.230Z,102936.38
2019-03-21T20:55:53.887Z,102951.89
2019-03-21T20:58:17.832Z,102944.47
2019-03-21T21:00:43.611Z,102944.47
2019-03-21T21:03:09.391Z,102945.66
2019-03-21T21:05:35.189Z,102944.10
2019-03-21T21:08:00.966Z,102927.62
2019-03-21T21:10:26.760Z,102937.42
2019-03-21T21:12:52.547Z,102934.67
2019-03-21T21:15:18.336Z,102927.47
2019-03-21T21:17:44.127Z,102927.33
2019-03-21T21:20:17.211Z,102922.70
2019-03-21T21:22:42.994Z,102879.42
2019-03-21T21:25:08.991Z,102914.82
2019-03-21T21:27:34.782Z,102937.10
2019-03-21T21:30:00.598Z,102932.34
2019-03-21T21:32:26.375Z,102932.34
2019-03-21T21:34:54.572Z,102931.15
2019-03-21T21:37:20.187Z,102931.39
2019-03-21T21:39:46.029Z,102935.88
2019-03-21T21:42:11.811Z,102936.17
2019-03-21T21:44:37.600Z,102930.98
2019-03-21T21:47:03.384Z,102926.32
2019-03-21T21:49:29.181Z,102926.22
2019-03-21T21:51:54.955Z,102921.97
2019-03-21T21:54:20.771Z,102914.24
2019-03-21T21:56:46.551Z,102916.42
2019-03-21T21:59:12.331Z,102910.78
2019-03-21T22:01:38.122Z,102906.11
2019-03-21T22:04:05.139Z,102909.69
2019-03-21T22:06:31.013Z,102909.16
2019-03-21T22:08:56.785Z,102913.42
2019-03-21T22:11:22.585Z,102913.78
2019-03-21T22:13:48.364Z,102916.20
2019-03-21T22:16:14.241Z,102921.77
2019-03-21T22:18:40.035Z,102920.10
2019-03-21T22:21:05.823Z,102914.45
2019-03-21T22:23:31.597Z,102917.25
2019-03-21T22:25:57.394Z,102922.80
2019-03-21T22:28:23.166Z,102918.13
2019-03-21T22:30:48.958Z,102916.16
2019-03-21T22:33:14.732Z,102923.78
2019-03-21T22:35:40.527Z,102933.09
2019-03-21T22:38:06.306Z,102927.78
2019-03-21T22:40:32.095Z,102919.48
2019-03-21T22:42:57.873Z,102917.51
2019-03-21T22:45:23.678Z,102912.62
2019-03-21T22:47:50.736Z,102906.63
2019-03-21T22:50:16.745Z,102906.27
2019-03-21T22:52:43.332Z,102892.80
2019-03-21T22:55:09.428Z,102916.67
2019-03-21T22:57:35.221Z,102916.67
2019-03-21T23:00:00.998Z,102922.27
2019-03-21T23:02:26.897Z,102924.82
2019-03-21T23:04:52.667Z,102918.45
2019-03-21T23:07:18.459Z,102914.96
2019-03-21T23:09:44.253Z,102910.45
2019-03-21T23:12:10.064Z,102907.35
2019-03-21T23:14:35.827Z,102907.35
2019-03-21T23:17:01.622Z,102911.33
2019-03-21T23:19:27.423Z,102912.02
2019-03-21T23:21:53.217Z,102904.34
2019-03-21T23:24:19.000Z,102902.52
2019-03-21T23:26:52.875Z,102894.80
2019-03-21T23:29:12.474Z,102888.76
2019-03-21T23:31:38.279Z,102888.06
2019-03-21T23:34:04.053Z,102894.14
2019-03-21T23:36:29.837Z,102890.77
2019-03-21T23:38:55.632Z,102888.42
2019-03-21T23:41:21.408Z,102882.55
2019-03-21T23:43:47.204Z,102878.89
2019-03-21T23:46:12.979Z,102876.64
2019-03-21T23:48:38.772Z,102882.53
2019-03-21T23:51:04.555Z,102881.97
2019-03-21T23:53:30.342Z,102884.72
2019-03-21T23:55:56.121Z,102878.44
2019-03-21T23:58:21.922Z,102880.56
